Wetterdaten: Woche 05.10.09 - 11.10.09 (KW41)
Datum Zeit Temp. Innen Temp. Aussen UV X Diff Temp. Feuchte Inne Feuchte Auss Sonnenschein Luftdruck Regen ab 0,1 Wind Sonnenschein Windben
05.10.2009 00:00 17,5 C 7,7 C 0,0 UV-I 0,0 C 55 % 84 % 0 % 1015,6 hPa 0,0 l/m 0,0 km/h (0 Bft) 0,00 h 0,0 km/h (0 Bft)
05.10.2009 01:00 17,2 C 7,0 C 0,0 UV-I 0,0 C 55 % 86 % 0 % 1015,8 hPa 0,0 l/m 0,0 km/h (0 Bft) 0,00 h 0,0 km/h (0 Bft)
05.10.2009 02:00 17,1 C 6,4 C 0,0 UV-I 0,0 C 55 % 88 % 0 % 1015,7 hPa 0,0 l/m 0,0 km/h (0 Bft) 0,00 h 0,0 km/h (0 Bft)
05.10.2009 03:00 17,0 C 5,9 C 0,0 UV-I 0,0 C 54 % 89 % 0 % 1015,7 hPa 0,0 l/m 0,0 km/h (0 Bft) 0,00 h 0,0 km/h (0 Bft)
05.10.2009 04:00 16,8 C 6,2 C 0,0 UV-I 0,2 C 55 % 91 % 0 % 1015,6 hPa 0,0 l/m 0,6 km/h (0 Bft) 0,00 h 0,9 km/h (0 Bft)
05.10.2009 05:00 16,8 C 7,1 C 0,0 UV-I 0,1 C 56 % 92 % 0 % 1015,3 hPa 0,0 l/m 0,2 km/h (0 Bft) 0,00 h 0,4 km/h (0 Bft)
05.10.2009 06:00 16,7 C 7,3 C 0,0 UV-I 0,0 C 56 % 92 % 0 % 1015,2 hPa 0,0 l/m 0,0 km/h (0 Bft) 0,00 h 0,0 km/h (0 Bft)
05.10.2009 07:00 16,7 C 7,8 C 0,0 UV-I 0,1 C 56 % 93 % 1 % 1015,3 hPa 0,0 l/m 0,3 km/h (0 Bft) 0,03 h 0,6 km/h (0 Bft)
05.10.2009 08:00 16,7 C 8,8 C 0,0 UV-I 0,4 C 58 % 93 % 12 % 1015,1 hPa 0,0 l/m 0,2 km/h (0 Bft) 0,00 h 0,4 km/h (0 Bft)
05.10.2009 09:00 17,0 C 10,0 C 0,1 UV-I 0,6 C 58 % 92 % 17 % 1015,1 hPa 0,0 l/m 1,4 km/h (1 Bft) 0,00 h 3,4 km/h (1 Bft)
05.10.2009 10:00 17,2 C 11,0 C 0,3 UV-I 0,4 C 58 % 89 % 11 % 1015,0 hPa 0,0 l/m 3,9 km/h (1 Bft) 0,00 h 5,7 km/h (1 Bft)
05.10.2009 11:00 17,3 C 11,9 C 0,5 UV-I 0,4 C 59 % 88 % 11 % 1014,8 hPa 0,0 l/m 3,2 km/h (1 Bft) 0,00 h 5,6 km/h (1 Bft)
05.10.2009 12:00 17,7 C 13,3 C 1,0 UV-I 1,0 C 60 % 86 % 27 % 1014,1 hPa 0,0 l/m 3,2 km/h (1 Bft) 0,00 h 5,8 km/h (2 Bft)
05.10.2009 13:00 17,9 C 14,2 C 0,5 UV-I 0,1 C 61 % 85 % 4 % 1014,2 hPa 0,3 l/m 2,8 km/h (1 Bft) 0,00 h 3,6 km/h (1 Bft)
05.10.2009 14:00 18,1 C 14,2 C 0,5 UV-I 0,0 C 63 % 89 % 0 % 1013,7 hPa 1,0 l/m 0,4 km/h (0 Bft) 0,00 h 0,7 km/h (0 Bft)
05.10.2009 15:00 18,2 C 14,0 C 0,1 UV-I 0,0 C 65 % 90 % 0 % 1013,1 hPa 1,9 l/m 0,5 km/h (0 Bft) 0,00 h 0,6 km/h (0 Bft)
05.10.2009 16:00 18,3 C 13,7 C 0,1 UV-I 0,0 C 65 % 91 % 0 % 1012,4 hPa 0,8 l/m 0,4 km/h (0 Bft) 0,00 h 1,0 km/h (0 Bft)
05.10.2009 17:00 18,5 C 13,7 C 0,0 UV-I 0,0 C 64 % 93 % 0 % 1011,6 hPa 0,0 l/m 1,2 km/h (1 Bft) 0,00 h 2,3 km/h (1 Bft)
05.10.2009 18:00 18,3 C 13,7 C 0,0 UV-I 0,0 C 66 % 92 % 0 % 1010,7 hPa 0,2 l/m 2,9 km/h (1 Bft) 0,00 h 4,2 km/h (1 Bft)
05.10.2009 19:00 18,1 C 13,4 C 0,0 UV-I 0,0 C 66 % 92 % 0 % 1010,3 hPa 0,9 l/m 2,8 km/h (1 Bft) 0,00 h 5,2 km/h (1 Bft)
05.10.2009 20:00 18,0 C 13,0 C 0,0 UV-I 0,0 C 67 % 93 % 0 % 1010,2 hPa 3,7 l/m 2,4 km/h (1 Bft) 0,00 h 4,3 km/h (1 Bft)
05.10.2009 21:00 17,9 C 12,8 C 0,0 UV-I 0,0 C 67 % 93 % 0 % 1009,7 hPa 0,6 l/m 1,3 km/h (1 Bft) 0,00 h 2,4 km/h (1 Bft)
05.10.2009 22:00 17,6 C 12,7 C 0,0 UV-I 0,0 C 68 % 94 % 0 % 1009,4 hPa 3,0 l/m 1,7 km/h (1 Bft) 0,00 h 2,5 km/h (1 Bft)
05.10.2009 23:00 17,7 C 12,7 C 0,0 UV-I 0,0 C 68 % 94 % 0 % 1009,0 hPa 3,8 l/m 1,2 km/h (1 Bft) 0,00 h 2,1 km/h (1 Bft)
06.10.2009 00:00 17,8 C 12,7 C 0,0 UV-I 0,0 C 68 % 95 % 0 % 1008,7 hPa 0,3 l/m 0,4 km/h (0 Bft) 0,00 h 0,3 km/h (0 Bft)
06.10.2009 01:00 17,9 C 12,8 C 0,0 UV-I 0,0 C 68 % 95 % 0 % 1008,7 hPa 0,4 l/m 0,5 km/h (0 Bft) 0,00 h 1,0 km/h (0 Bft)
06.10.2009 02:00 18,0 C 12,9 C 0,0 UV-I 0,0 C 69 % 95 % 0 % 1008,9 hPa 0,3 l/m 0,6 km/h (0 Bft) 0,00 h 0,7 km/h (0 Bft)
06.10.2009 03:00 18,0 C 13,1 C 0,0 UV-I 0,0 C 69 % 95 % 0 % 1009,5 hPa 0,0 l/m 0,6 km/h (0 Bft) 0,00 h 1,0 km/h (0 Bft)
06.10.2009 04:00 18,0 C 13,3 C 0,0 UV-I 0,0 C 70 % 96 % 0 % 1010,0 hPa 0,0 l/m 1,5 km/h (1 Bft) 0,00 h 2,5 km/h (1 Bft)
06.10.2009 05:00 18,0 C 13,2 C 0,0 UV-I 0,0 C 69 % 96 % 0 % 1010,9 hPa 0,0 l/m 1,7 km/h (1 Bft) 0,00 h 3,3 km/h (1 Bft)
06.10.2009 06:00 18,0 C 13,1 C 0,0 UV-I 0,0 C 69 % 95 % 0 % 1011,4 hPa 0,0 l/m 1,7 km/h (1 Bft) 0,00 h 3,1 km/h (1 Bft)
06.10.2009 07:00 17,9 C 13,0 C 0,0 UV-I 0,0 C 69 % 95 % 0 % 1011,7 hPa 0,0 l/m 2,2 km/h (1 Bft) 0,00 h 4,3 km/h (1 Bft)
06.10.2009 08:00 17,9 C 12,8 C 0,0 UV-I 0,0 C 69 % 95 % 0 % 1012,2 hPa 0,1 l/m 1,0 km/h (0 Bft) 0,00 h 1,5 km/h (1 Bft)
06.10.2009 09:00 18,0 C 12,8 C 0,0 UV-I 0,0 C 69 % 95 % 0 % 1012,7 hPa 0,0 l/m 0,3 km/h (0 Bft) 0,00 h 0,7 km/h (0 Bft)
06.10.2009 10:00 18,2 C 13,2 C 0,3 UV-I 0,1 C 68 % 94 % 4 % 1012,9 hPa 0,0 l/m 0,5 km/h (0 Bft) 0,00 h 1,2 km/h (1 Bft)
06.10.2009 11:00 18,3 C 13,8 C 0,9 UV-I 0,6 C 68 % 94 % 18 % 1013,0 hPa 0,0 l/m 1,4 km/h (1 Bft) 0,00 h 2,4 km/h (1 Bft)
06.10.2009 12:00 18,7 C 15,1 C 1,9 UV-I 1,4 C 68 % 93 % 39 % 1012,9 hPa 0,0 l/m 3,2 km/h (1 Bft) 0,00 h 4,6 km/h (1 Bft)
06.10.2009 13:00 19,0 C 16,4 C 1,7 UV-I 0,8 C 68 % 90 % 22 % 1012,4 hPa 0,0 l/m 4,1 km/h (1 Bft) 0,00 h 6,3 km/h (2 Bft)
06.10.2009 14:00 19,2 C 16,8 C 1,3 UV-I 0,1 C 69 % 89 % 2 % 1011,8 hPa 0,1 l/m 3,9 km/h (1 Bft) 0,00 h 6,7 km/h (2 Bft)
06.10.2009 15:00 19,2 C 17,1 C 0,6 UV-I 0,2 C 69 % 89 % 5 % 1011,0 hPa 0,2 l/m 2,0 km/h (1 Bft) 0,00 h 2,3 km/h (1 Bft)
06.10.2009 16:00 19,2 C 16,9 C 0,0 UV-I 0,0 C 71 % 91 % 0 % 1010,1 hPa 1,3 l/m 2,8 km/h (1 Bft) 0,00 h 4,5 km/h (1 Bft)
06.10.2009 17:00 19,2 C 16,5 C 0,0 UV-I 0,0 C 72 % 93 % 0 % 1009,7 hPa 1,1 l/m 3,7 km/h (1 Bft) 0,00 h 5,7 km/h (1 Bft)
06.10.2009 18:00 19,1 C 16,5 C 0,0 UV-I 0,0 C 74 % 94 % 0 % 1009,3 hPa 1,2 l/m 2,9 km/h (1 Bft) 0,00 h 4,0 km/h (1 Bft)
06.10.2009 19:00 19,2 C 16,9 C 0,0 UV-I 0,0 C 75 % 95 % 0 % 1009,3 hPa 0,0 l/m 1,9 km/h (1 Bft) 0,00 h 2,4 km/h (1 Bft)
06.10.2009 20:00 19,2 C 17,5 C 0,0 UV-I 0,0 C 76 % 95 % 0 % 1009,7 hPa 0,0 l/m 3,5 km/h (1 Bft) 0,00 h 4,6 km/h (1 Bft)
06.10.2009 21:00 19,2 C 17,7 C 0,0 UV-I 0,0 C 77 % 94 % 0 % 1010,1 hPa 0,0 l/m 3,7 km/h (1 Bft) 0,00 h 6,7 km/h (2 Bft)
06.10.2009 22:00 19,3 C 18,0 C 0,0 UV-I 0,0 C 78 % 94 % 0 % 1010,2 hPa 0,0 l/m 4,8 km/h (1 Bft) 0,00 h 7,2 km/h (2 Bft)
06.10.2009 23:00 19,4 C 18,1 C 0,0 UV-I 0,0 C 78 % 93 % 0 % 1010,8 hPa 0,0 l/m 3,6 km/h (1 Bft) 0,00 h 7,0 km/h (2 Bft)
07.10.2009 00:00 19,5 C 18,3 C 0,0 UV-I 0,0 C 78 % 93 % 0 % 1010,7 hPa 0,0 l/m 3,7 km/h (1 Bft) 0,00 h 6,0 km/h (2 Bft)
07.10.2009 01:00 19,6 C 18,5 C 0,0 UV-I 0,0 C 78 % 92 % 0 % 1010,9 hPa 0,0 l/m 4,3 km/h (1 Bft) 0,00 h 8,4 km/h (2 Bft)
07.10.2009 02:00 19,7 C 18,7 C 0,0 UV-I 0,0 C 78 % 91 % 0 % 1011,2 hPa 0,0 l/m 4,1 km/h (1 Bft) 0,00 h 4,8 km/h (1 Bft)
07.10.2009 03:00 19,8 C 18,7 C 0,0 UV-I 0,0 C 78 % 91 % 0 % 1011,2 hPa 0,0 l/m 3,7 km/h (1 Bft) 0,00 h 6,9 km/h (2 Bft)
07.10.2009 04:00 19,8 C 18,7 C 0,0 UV-I 0,0 C 77 % 90 % 0 % 1011,4 hPa 0,0 l/m 3,3 km/h (1 Bft) 0,00 h 5,6 km/h (1 Bft)
07.10.2009 05:00 19,9 C 18,7 C 0,0 UV-I 0,0 C 77 % 89 % 0 % 1011,2 hPa 0,0 l/m 3,2 km/h (1 Bft) 0,00 h 4,7 km/h (1 Bft)
07.10.2009 06:00 19,9 C 18,5 C 0,0 UV-I 0,0 C 76 % 89 % 0 % 1011,2 hPa 0,0 l/m 2,3 km/h (1 Bft) 0,00 h 3,6 km/h (1 Bft)
07.10.2009 07:00 19,9 C 18,4 C 0,0 UV-I 0,0 C 76 % 88 % 0 % 1011,1 hPa 0,0 l/m 2,8 km/h (1 Bft) 0,00 h 4,2 km/h (1 Bft)
07.10.2009 08:00 19,9 C 18,4 C 0,0 UV-I 0,0 C 76 % 88 % 0 % 1011,2 hPa 0,0 l/m 3,2 km/h (1 Bft) 0,00 h 5,8 km/h (2 Bft)
07.10.2009 09:00 20,0 C 18,8 C 0,2 UV-I 0,1 C 76 % 87 % 3 % 1011,7 hPa 0,0 l/m 4,4 km/h (1 Bft) 0,00 h 6,6 km/h (2 Bft)
07.10.2009 10:00 20,2 C 19,4 C 0,9 UV-I 0,9 C 75 % 85 % 25 % 1012,0 hPa 0,0 l/m 5,2 km/h (1 Bft) 0,00 h 9,2 km/h (2 Bft)
07.10.2009 11:00 20,5 C 20,4 C 1,5 UV-I 1,1 C 75 % 83 % 32 % 1012,3 hPa 0,0 l/m 5,8 km/h (2 Bft) 0,00 h 9,7 km/h (2 Bft)
07.10.2009 12:00 20,9 C 21,7 C 6,1 UV-I 3,6 C 74 % 78 % 86 % 1012,5 hPa 0,0 l/m 6,7 km/h (2 Bft) 0,50 h 9,1 km/h (2 Bft)
07.10.2009 13:00 21,2 C 22,0 C 1,4 UV-I 0,4 C 72 % 75 % 13 % 1012,4 hPa 0,0 l/m 5,6 km/h (1 Bft) 0,00 h 10,0 km/h (2 Bft)
07.10.2009 14:00 21,2 C 21,7 C 1,3 UV-I 0,5 C 72 % 77 % 15 % 1012,2 hPa 0,0 l/m 3,2 km/h (1 Bft) 0,00 h 5,4 km/h (1 Bft)
07.10.2009 15:00 21,4 C 21,9 C 1,0 UV-I 0,5 C 72 % 78 % 15 % 1011,9 hPa 0,0 l/m 3,5 km/h (1 Bft) 0,00 h 4,6 km/h (1 Bft)
07.10.2009 16:00 21,5 C 21,9 C 0,5 UV-I 0,5 C 73 % 78 % 13 % 1011,4 hPa 0,0 l/m 2,7 km/h (1 Bft) 0,00 h 3,4 km/h (1 Bft)
07.10.2009 17:00 21,4 C 21,4 C 0,0 UV-I 0,0 C 72 % 79 % 0 % 1010,2 hPa 0,0 l/m 0,5 km/h (0 Bft) 0,00 h 0,8 km/h (0 Bft)
07.10.2009 18:00 21,2 C 20,5 C 0,0 UV-I 0,0 C 73 % 84 % 0 % 1009,2 hPa 0,0 l/m 0,0 km/h (0 Bft) 0,00 h 0,0 km/h (0 Bft)
07.10.2009 19:00 21,1 C 19,6 C 0,0 UV-I 0,0 C 74 % 87 % 0 % 1008,6 hPa 1,7 l/m 0,0 km/h (0 Bft) 0,00 h 0,1 km/h (0 Bft)
07.10.2009 20:00 21,0 C 19,0 C 0,0 UV-I 0,0 C 75 % 90 % 0 % 1008,4 hPa 1,2 l/m 0,2 km/h (0 Bft) 0,00 h 0,2 km/h (0 Bft)
07.10.2009 21:00 21,0 C 18,3 C 0,0 UV-I 0,0 C 74 % 92 % 0 % 1008,0 hPa 1,0 l/m 2,6 km/h (1 Bft) 0,00 h 4,3 km/h (1 Bft)
07.10.2009 22:00 20,9 C 17,1 C 0,0 UV-I 0,0 C 74 % 91 % 0 % 1008,1 hPa 7,0 l/m 0,5 km/h (0 Bft) 0,00 h 0,6 km/h (0 Bft)
07.10.2009 23:00 20,8 C 16,4 C 0,0 UV-I 0,0 C 74 % 93 % 0 % 1007,4 hPa 2,6 l/m 0,0 km/h (0 Bft) 0,00 h 0,1 km/h (0 Bft)
08.10.2009 00:00 20,7 C 15,9 C 0,0 UV-I 0,0 C 74 % 93 % 0 % 1006,3 hPa 5,8 l/m 1,7 km/h (1 Bft) 0,00 h 3,3 km/h (1 Bft)
08.10.2009 01:00 20,4 C 15,8 C 0,0 UV-I 0,0 C 74 % 94 % 0 % 1006,1 hPa 5,3 l/m 0,6 km/h (0 Bft) 0,00 h 1,0 km/h (0 Bft)
08.10.2009 02:00 20,2 C 16,0 C 0,0 UV-I 0,0 C 74 % 95 % 0 % 1005,6 hPa 1,6 l/m 2,6 km/h (1 Bft) 0,00 h 4,7 km/h (1 Bft)
08.10.2009 03:00 20,2 C 16,1 C 0,0 UV-I 0,0 C 75 % 95 % 0 % 1005,1 hPa 2,1 l/m 2,0 km/h (1 Bft) 0,00 h 3,0 km/h (1 Bft)
08.10.2009 04:00 20,1 C 16,9 C 0,0 UV-I 0,0 C 76 % 96 % 0 % 1004,5 hPa 0,1 l/m 4,3 km/h (1 Bft) 0,00 h 6,8 km/h (2 Bft)
08.10.2009 05:00 20,1 C 15,9 C 0,0 UV-I 0,0 C 75 % 92 % 0 % 1006,1 hPa 0,2 l/m 6,1 km/h (2 Bft) 0,00 h 9,3 km/h (2 Bft)
08.10.2009 06:00 19,8 C 13,1 C 0,0 UV-I 0,0 C 72 % 91 % 0 % 1008,8 hPa 0,2 l/m 4,3 km/h (1 Bft) 0,00 h 7,0 km/h (2 Bft)
08.10.2009 07:00 19,5 C 11,6 C 0,0 UV-I 0,0 C 69 % 92 % 0 % 1010,6 hPa 0,3 l/m 2,9 km/h (1 Bft) 0,00 h 4,1 km/h (1 Bft)
08.10.2009 08:00 19,2 C 10,9 C 0,0 UV-I 0,0 C 68 % 93 % 0 % 1012,5 hPa 0,3 l/m 2,0 km/h (1 Bft) 0,00 h 2,5 km/h (1 Bft)
08.10.2009 09:00 19,2 C 10,8 C 0,0 UV-I 0,0 C 67 % 94 % 0 % 1013,6 hPa 0,2 l/m 0,2 km/h (0 Bft) 0,00 h 0,3 km/h (0 Bft)
08.10.2009 10:00 19,2 C 11,0 C 0,4 UV-I 0,0 C 66 % 94 % 0 % 1015,3 hPa 0,0 l/m 1,9 km/h (1 Bft) 0,00 h 3,3 km/h (1 Bft)
08.10.2009 11:00 19,4 C 11,8 C 3,6 UV-I 4,9 C 66 % 91 % 85 % 1016,2 hPa 0,0 l/m 1,9 km/h (1 Bft) 0,60 h 3,8 km/h (1 Bft)
08.10.2009 12:00 19,7 C 13,6 C 6,7 UV-I 6,2 C 64 % 86 % 99 % 1016,7 hPa 0,0 l/m 1,1 km/h (0 Bft) 0,77 h 1,8 km/h (1 Bft)
08.10.2009 13:00 20,3 C 15,3 C 5,9 UV-I 6,0 C 63 % 78 % 100 % 1017,4 hPa 0,0 l/m 0,8 km/h (0 Bft) 1,00 h 1,5 km/h (1 Bft)
08.10.2009 14:00 21,3 C 16,1 C 2,8 UV-I 5,6 C 60 % 72 % 100 % 1019,3 hPa 0,0 l/m 2,6 km/h (1 Bft) 0,97 h 4,6 km/h (1 Bft)
08.10.2009 15:00 22,4 C 16,6 C 1,9 UV-I 6,0 C 55 % 68 % 100 % 1021,6 hPa 0,0 l/m 2,9 km/h (1 Bft) 0,87 h 4,2 km/h (1 Bft)
08.10.2009 16:00 22,7 C 16,0 C 1,5 UV-I 4,7 C 53 % 68 % 98 % 1020,5 hPa 0,0 l/m 2,4 km/h (1 Bft) 1,00 h 3,6 km/h (1 Bft)
08.10.2009 17:00 21,9 C 15,3 C 0,7 UV-I 0,6 C 55 % 69 % 17 % 1019,1 hPa 0,0 l/m 2,0 km/h (1 Bft) 0,03 h 2,5 km/h (1 Bft)
08.10.2009 18:00 21,3 C 14,3 C 0,1 UV-I 0,0 C 58 % 73 % 0 % 1019,4 hPa 0,0 l/m 0,8 km/h (0 Bft) 0,00 h 1,2 km/h (1 Bft)
08.10.2009 19:00 20,5 C 12,7 C 0,0 UV-I 0,0 C 57 % 79 % 0 % 1019,6 hPa 0,0 l/m 0,0 km/h (0 Bft) 0,00 h 0,0 km/h (0 Bft)
08.10.2009 20:00 19,8 C 11,1 C 0,0 UV-I 0,0 C 57 % 84 % 0 % 1019,9 hPa 0,0 l/m 0,0 km/h (0 Bft) 0,00 h 0,0 km/h (0 Bft)
08.10.2009 21:00 19,3 C 10,2 C 0,0 UV-I 0,0 C 59 % 88 % 0 % 1020,3 hPa 0,0 l/m 0,1 km/h (0 Bft) 0,00 h 0,2 km/h (0 Bft)
08.10.2009 22:00 19,1 C 9,8 C 0,0 UV-I 0,0 C 59 % 90 % 0 % 1021,2 hPa 0,0 l/m 0,0 km/h (0 Bft) 0,00 h 0,0 km/h (0 Bft)
08.10.2009 23:00 18,8 C 9,6 C 0,0 UV-I 0,0 C 60 % 91 % 0 % 1022,0 hPa 0,0 l/m 0,0 km/h (0 Bft) 0,00 h 0,0 km/h (0 Bft)
09.10.2009 00:00 18,7 C 9,1 C 0,0 UV-I 0,0 C 59 % 92 % 0 % 1022,3 hPa 0,0 l/m 0,0 km/h (0 Bft) 0,00 h 0,0 km/h (0 Bft)
09.10.2009 01:00 18,4 C 8,2 C 0,0 UV-I 0,0 C 59 % 92 % 0 % 1023,0 hPa 0,0 l/m 0,0 km/h (0 Bft) 0,00 h 0,0 km/h (0 Bft)
09.10.2009 02:00 18,2 C 7,4 C 0,0 UV-I 0,0 C 58 % 92 % 0 % 1023,7 hPa 0,0 l/m 0,0 km/h (0 Bft) 0,00 h 0,0 km/h (0 Bft)
09.10.2009 03:00 18,1 C 6,8 C 0,0 UV-I 0,0 C 58 % 92 % 0 % 1024,1 hPa 0,0 l/m 0,0 km/h (0 Bft) 0,00 h 0,0 km/h (0 Bft)
09.10.2009 04:00 17,8 C 6,2 C 0,0 UV-I 0,0 C 57 % 93 % 0 % 1024,5 hPa 0,0 l/m 0,0 km/h (0 Bft) 0,00 h 0,0 km/h (0 Bft)
09.10.2009 05:00 17,7 C 5,6 C 0,0 UV-I 0,0 C 56 % 93 % 0 % 1024,8 hPa 0,0 l/m 0,0 km/h (0 Bft) 0,00 h 0,0 km/h (0 Bft)
09.10.2009 06:00 17,6 C 5,2 C 0,0 UV-I 0,0 C 56 % 93 % 0 % 1025,4 hPa 0,1 l/m 0,0 km/h (0 Bft) 0,00 h 0,0 km/h (0 Bft)
09.10.2009 07:00 17,4 C 4,8 C 0,0 UV-I 0,0 C 54 % 94 % 0 % 1025,8 hPa 0,0 l/m 0,0 km/h (0 Bft) 0,00 h 0,0 km/h (0 Bft)
09.10.2009 08:00 17,0 C 4,6 C 0,1 UV-I 0,0 C 54 % 94 % 0 % 1027,0 hPa 0,0 l/m 0,0 km/h (0 Bft) 0,00 h 0,0 km/h (0 Bft)
09.10.2009 09:00 17,3 C 6,0 C 0,7 UV-I 2,2 C 57 % 95 % 44 % 1026,3 hPa 0,0 l/m 0,0 km/h (0 Bft) 0,27 h 0,1 km/h (0 Bft)
09.10.2009 10:00 17,7 C 8,8 C 1,6 UV-I 9,3 C 58 % 95 % 100 % 1025,4 hPa 0,0 l/m 0,4 km/h (0 Bft) 0,95 h 1,4 km/h (1 Bft)
09.10.2009 11:00 18,1 C 12,3 C 3,7 UV-I 8,4 C 58 % 85 % 100 % 1024,3 hPa 0,0 l/m 1,1 km/h (0 Bft) 1,00 h 1,7 km/h (1 Bft)
09.10.2009 12:00 18,6 C 15,2 C 8,3 UV-I 7,5 C 57 % 67 % 100 % 1022,6 hPa 0,0 l/m 1,4 km/h (1 Bft) 1,00 h 2,3 km/h (1 Bft)
09.10.2009 13:00 19,6 C 17,3 C 10,8 UV-I 7,5 C 54 % 56 % 100 % 1020,6 hPa 0,0 l/m 1,1 km/h (1 Bft) 1,00 h 1,6 km/h (1 Bft)
09.10.2009 14:00 20,9 C 18,6 C 2,8 UV-I 6,9 C 51 % 52 % 100 % 1014,9 hPa 0,0 l/m 1,0 km/h (0 Bft) 0,97 h 2,1 km/h (1 Bft)
09.10.2009 15:00 22,0 C 18,9 C 1,8 UV-I 6,5 C 48 % 52 % 100 % 1001,1 hPa 0,0 l/m 0,9 km/h (0 Bft) 0,93 h 1,3 km/h (1 Bft)
09.10.2009 16:00 22,2 C 17,9 C 1,3 UV-I 4,9 C 46 % 54 % 89 % 1004,7 hPa 0,0 l/m 1,2 km/h (1 Bft) 0,67 h 3,3 km/h (1 Bft)
09.10.2009 17:00 21,0 C 16,6 C 0,7 UV-I 0,3 C 48 % 58 % 10 % 1014,6 hPa 0,0 l/m 0,4 km/h (0 Bft) 0,00 h 0,5 km/h (0 Bft)
09.10.2009 18:00 20,3 C 15,5 C 0,1 UV-I 0,0 C 49 % 63 % 0 % 1016,2 hPa 0,0 l/m 0,0 km/h (0 Bft) 0,00 h 0,0 km/h (0 Bft)
09.10.2009 19:00 20,0 C 14,4 C 0,0 UV-I 0,0 C 51 % 69 % 0 % 1016,8 hPa 0,0 l/m 0,0 km/h (0 Bft) 0,00 h 0,1 km/h (0 Bft)
09.10.2009 20:00 19,7 C 13,4 C 0,0 UV-I 0,0 C 53 % 74 % 0 % 1017,9 hPa 0,0 l/m 0,0 km/h (0 Bft) 0,00 h 0,0 km/h (0 Bft)
09.10.2009 21:00 19,3 C 12,0 C 0,0 UV-I 0,0 C 53 % 79 % 0 % 1018,1 hPa 0,0 l/m 0,0 km/h (0 Bft) 0,00 h 0,0 km/h (0 Bft)
09.10.2009 22:00 19,1 C 11,9 C 0,0 UV-I 0,2 C 54 % 79 % 0 % 1017,1 hPa 0,0 l/m 0,5 km/h (0 Bft) 0,00 h 1,0 km/h (0 Bft)
09.10.2009 23:00 19,0 C 12,4 C 0,0 UV-I 0,1 C 53 % 77 % 0 % 1015,5 hPa 0,0 l/m 1,7 km/h (1 Bft) 0,00 h 4,2 km/h (1 Bft)
10.10.2009 00:00 18,8 C 12,5 C 0,0 UV-I 0,0 C 53 % 77 % 0 % 1014,5 hPa 0,0 l/m 2,2 km/h (1 Bft) 0,00 h 4,6 km/h (1 Bft)
10.10.2009 01:00 18,7 C 12,5 C 0,0 UV-I 0,0 C 54 % 80 % 0 % 1014,1 hPa 2,2 l/m 3,2 km/h (1 Bft) 0,00 h 4,7 km/h (1 Bft)
10.10.2009 02:00 18,6 C 11,5 C 0,0 UV-I 0,0 C 58 % 88 % 0 % 1014,0 hPa 6,1 l/m 1,1 km/h (0 Bft) 0,00 h 2,1 km/h (1 Bft)
10.10.2009 03:00 18,4 C 11,1 C 0,0 UV-I 0,0 C 60 % 91 % 0 % 1013,1 hPa 5,2 l/m 1,3 km/h (1 Bft) 0,00 h 2,4 km/h (1 Bft)
10.10.2009 04:00 18,4 C 11,1 C 0,0 UV-I 0,0 C 61 % 92 % 0 % 1012,1 hPa 2,5 l/m 0,8 km/h (0 Bft) 0,00 h 0,4 km/h (0 Bft)
10.10.2009 05:00 18,4 C 11,4 C 0,0 UV-I 0,0 C 62 % 94 % 0 % 1010,8 hPa 1,7 l/m 1,6 km/h (1 Bft) 0,00 h 3,0 km/h (1 Bft)
10.10.2009 06:00 18,4 C 11,8 C 0,0 UV-I 0,0 C 63 % 94 % 0 % 1010,4 hPa 1,6 l/m 1,0 km/h (0 Bft) 0,00 h 2,4 km/h (1 Bft)
10.10.2009 07:00 18,3 C 12,1 C 0,0 UV-I 0,0 C 65 % 95 % 0 % 1010,3 hPa 3,4 l/m 3,5 km/h (1 Bft) 0,00 h 4,8 km/h (1 Bft)
10.10.2009 08:00 18,3 C 12,5 C 0,0 UV-I 0,0 C 66 % 95 % 0 % 1010,8 hPa 0,0 l/m 0,7 km/h (0 Bft) 0,00 h 1,2 km/h (1 Bft)
10.10.2009 09:00 18,5 C 13,5 C 0,1 UV-I 0,1 C 67 % 96 % 4 % 1010,9 hPa 0,0 l/m 0,9 km/h (0 Bft) 0,00 h 1,7 km/h (1 Bft)
10.10.2009 10:00 18,7 C 14,4 C 0,8 UV-I 1,4 C 68 % 96 % 41 % 1010,7 hPa 0,0 l/m 0,8 km/h (0 Bft) 0,13 h 2,7 km/h (1 Bft)
10.10.2009 11:00 19,0 C 15,0 C 1,0 UV-I 1,0 C 68 % 95 % 29 % 1010,1 hPa 0,0 l/m 1,5 km/h (1 Bft) 0,00 h 2,7 km/h (1 Bft)
10.10.2009 12:00 19,2 C 15,6 C 0,7 UV-I 0,5 C 68 % 93 % 15 % 1009,7 hPa 0,0 l/m 2,0 km/h (1 Bft) 0,00 h 3,6 km/h (1 Bft)
10.10.2009 13:00 19,3 C 15,6 C 1,6 UV-I 0,6 C 68 % 92 % 16 % 1010,4 hPa 0,9 l/m 2,7 km/h (1 Bft) 0,00 h 4,6 km/h (1 Bft)
10.10.2009 14:00 19,4 C 15,5 C 1,2 UV-I 0,2 C 68 % 92 % 5 % 1011,7 hPa 0,2 l/m 2,7 km/h (1 Bft) 0,00 h 5,8 km/h (2 Bft)
10.10.2009 15:00 20,0 C 16,4 C 1,8 UV-I 2,3 C 67 % 90 % 66 % 1012,6 hPa 0,0 l/m 3,4 km/h (1 Bft) 0,37 h 5,4 km/h (1 Bft)
10.10.2009 16:00 20,0 C 15,4 C 0,4 UV-I 0,0 C 65 % 87 % 0 % 1012,5 hPa 1,7 l/m 2,3 km/h (1 Bft) 0,00 h 3,2 km/h (1 Bft)
10.10.2009 17:00 19,6 C 14,7 C 0,5 UV-I 0,0 C 66 % 90 % 0 % 1012,7 hPa 0,0 l/m 1,8 km/h (1 Bft) 0,00 h 3,9 km/h (1 Bft)
10.10.2009 18:00 19,3 C 14,4 C 0,0 UV-I 0,0 C 66 % 89 % 0 % 1013,0 hPa 0,0 l/m 4,3 km/h (1 Bft) 0,00 h 8,7 km/h (2 Bft)
10.10.2009 19:00 19,1 C 13,9 C 0,0 UV-I 0,0 C 66 % 90 % 0 % 1014,2 hPa 0,0 l/m 2,2 km/h (1 Bft) 0,00 h 3,4 km/h (1 Bft)
10.10.2009 20:00 18,9 C 13,4 C 0,0 UV-I 0,0 C 65 % 90 % 0 % 1014,6 hPa 0,0 l/m 2,9 km/h (1 Bft) 0,00 h 6,6 km/h (2 Bft)
10.10.2009 23:00 18,4 C 12,5 C 0,0 UV-I 0,0 C 64 % 90 % 0 % 1015,2 hPa 0,0 l/m 2,0 km/h (1 Bft) 0,00 h 3,5 km/h (1 Bft)
11.10.2009 00:00 18,3 C 12,5 C 0,0 UV-I 0,0 C 65 % 91 % 0 % 1015,3 hPa 0,0 l/m 2,0 km/h (1 Bft) 0,00 h 3,7 km/h (1 Bft)
11.10.2009 01:00 18,4 C 12,4 C 0,0 UV-I 0,0 C 65 % 91 % 0 % 1015,4 hPa 0,0 l/m 1,6 km/h (1 Bft) 0,00 h 3,8 km/h (1 Bft)
11.10.2009 02:00 18,4 C 12,5 C 0,0 UV-I 0,0 C 65 % 92 % 0 % 1015,9 hPa 0,0 l/m 1,4 km/h (1 Bft) 0,00 h 1,4 km/h (1 Bft)
11.10.2009 03:00 18,4 C 12,4 C 0,0 UV-I 0,0 C 65 % 92 % 0 % 1015,9 hPa 0,0 l/m 1,1 km/h (1 Bft) 0,00 h 3,3 km/h (1 Bft)
11.10.2009 04:00 18,3 C 12,3 C 0,0 UV-I 0,0 C 64 % 91 % 0 % 1015,9 hPa 0,0 l/m 2,1 km/h (1 Bft) 0,00 h 2,8 km/h (1 Bft)
11.10.2009 05:00 18,1 C 12,0 C 0,0 UV-I 0,0 C 64 % 92 % 0 % 1015,7 hPa 0,0 l/m 1,6 km/h (1 Bft) 0,00 h 3,0 km/h (1 Bft)
11.10.2009 06:00 18,0 C 11,9 C 0,0 UV-I 0,0 C 65 % 92 % 0 % 1015,4 hPa 0,0 l/m 1,5 km/h (1 Bft) 0,00 h 3,0 km/h (1 Bft)
11.10.2009 07:00 17,9 C 11,6 C 0,0 UV-I 0,0 C 64 % 92 % 0 % 1015,0 hPa 0,0 l/m 2,3 km/h (1 Bft) 0,00 h 4,2 km/h (1 Bft)
11.10.2009 08:00 17,7 C 11,3 C 0,0 UV-I 0,0 C 64 % 93 % 0 % 1015,1 hPa 0,0 l/m 1,5 km/h (1 Bft) 0,00 h 2,7 km/h (1 Bft)
11.10.2009 09:00 17,8 C 11,5 C 0,1 UV-I 0,1 C 65 % 94 % 2 % 1015,0 hPa 0,0 l/m 1,4 km/h (1 Bft) 0,00 h 2,4 km/h (1 Bft)
11.10.2009 10:00 17,8 C 12,2 C 0,1 UV-I 0,2 C 65 % 93 % 7 % 1014,7 hPa 0,0 l/m 2,6 km/h (1 Bft) 0,00 h 4,5 km/h (1 Bft)
11.10.2009 11:00 17,9 C 12,9 C 0,2 UV-I 0,3 C 66 % 93 % 8 % 1013,8 hPa 0,0 l/m 2,8 km/h (1 Bft) 0,00 h 4,3 km/h (1 Bft)
11.10.2009 12:00 18,0 C 13,6 C 0,9 UV-I 0,7 C 67 % 92 % 21 % 1013,5 hPa 0,0 l/m 3,8 km/h (1 Bft) 0,00 h 7,0 km/h (2 Bft)
11.10.2009 13:00 18,5 C 15,1 C 1,9 UV-I 1,8 C 66 % 87 % 52 % 1012,7 hPa 0,0 l/m 4,4 km/h (1 Bft) 0,10 h 6,6 km/h (2 Bft)
11.10.2009 14:00 18,6 C 15,4 C 0,3 UV-I 0,1 C 65 % 82 % 3 % 1011,4 hPa 0,0 l/m 4,5 km/h (1 Bft) 0,00 h 6,5 km/h (2 Bft)
11.10.2009 15:00 18,3 C 14,6 C 0,2 UV-I 0,0 C 64 % 83 % 0 % 1010,8 hPa 0,3 l/m 4,8 km/h (1 Bft) 0,00 h 8,6 km/h (2 Bft)
11.10.2009 16:00 18,2 C 13,8 C 0,2 UV-I 0,0 C 66 % 87 % 0 % 1010,1 hPa 0,0 l/m 4,0 km/h (1 Bft) 0,00 h 6,3 km/h (2 Bft)
11.10.2009 17:00 18,1 C 13,5 C 0,0 UV-I 0,0 C 66 % 88 % 0 % 1009,6 hPa 0,5 l/m 4,4 km/h (1 Bft) 0,00 h 6,9 km/h (2 Bft)
11.10.2009 18:00 18,1 C 12,9 C 0,0 UV-I 0,0 C 67 % 90 % 0 % 1009,4 hPa 0,6 l/m 1,7 km/h (1 Bft) 0,00 h 2,8 km/h (1 Bft)
11.10.2009 19:00 18,1 C 12,5 C 0,0 UV-I 0,0 C 68 % 92 % 0 % 1009,1 hPa 0,0 l/m 0,5 km/h (0 Bft) 0,00 h 1,7 km/h (1 Bft)
11.10.2009 20:00 18,0 C 12,2 C 0,0 UV-I 0,0 C 67 % 92 % 0 % 1008,4 hPa 0,0 l/m 1,7 km/h (1 Bft) 0,00 h 3,1 km/h (1 Bft)
11.10.2009 21:00 17,8 C 12,1 C 0,0 UV-I 0,0 C 66 % 92 % 0 % 1007,8 hPa 0,0 l/m 2,9 km/h (1 Bft) 0,00 h 5,8 km/h (2 Bft)
11.10.2009 22:00 17,7 C 11,3 C 0,0 UV-I 0,0 C 65 % 89 % 0 % 1008,1 hPa 2,1 l/m 2,8 km/h (1 Bft) 0,00 h 2,9 km/h (1 Bft)
11.10.2009 23:00 17,6 C 10,4 C 0,0 UV-I 0,0 C 64 % 92 % 0 % 1008,2 hPa 0,1 l/m 0,6 km/h (0 Bft) 0,00 h 0,7 km/h (0 Bft)
Min-Datum _ 05.10.09 09.10.09 05.10.09 05.10.09 09.10.09 09.10.09 05.10.09 09.10.09 - 05.10.09 - 05.10.09
_ Min-Zeit 07:54 08:24 00:00 00:00 16:04 14:34 00:00 15:56 - 00:00 - 00:00
Minimum _ 16,6 C 4,4 C 0,0 UV-I 0,0 C 45 % 50 % 0 % 997,6 hPa - 0,0 km/h (0 Bft) - 0,0 km/h (0 Bft)
Max-Datum _ 08.10.09 07.10.09 09.10.09 09.10.09 06.10.09 06.10.09 07.10.09 09.10.09 07.10.09 08.10.09 05.10.09 07.10.09
_ Max-Zeit 15:58 12:38 13:20 10:26 22:26 03:40 12:12 08:16 22:16 05:20 07:52 13:00
Maximum _ 23,1 C 22,3 C 12,2 UV-I 10,1 C 78 % 96 % 100 % 1027,1 hPa 7,0 l/m 10,3 km/h
W-SW (2 Bft)
0,03 h 33,2 km/h
NO (5 Bft)
Durchschnitt _ 19,0 C 13,7 C 0,5 UV-I 0,7 C 65 % 88 % 12 % 1013,4 hPa #79,7 l/m 1,9 km/h (1 Bft) #13:09 h 3,1 km/h (1 Bft)
© 2012 W. Hausmann